Time;durP1;ratioP1;P1;durP2;ratioP2;P2;SDS_P1;SDS_P2;PMS_P1;PMS_P2;Temp;Humidity;BMP_temperature;BMP_pressure;BME280_temperature;BME280_humidity;BME280_pressure;Samples;Min_cycle;Max_cycle;Signal;HPM_P1;HPM_P2
2023/03/21 00:01:04;;;;;;;14.73;6.32;;;12.30;99.90;;;;;;5032461;28;20194;-66
2023/03/21 00:03:32;;;;;;;11.43;5.72;;;12.40;99.90;;;;;;5018961;28;20188;-66
2023/03/21 00:05:58;;;;;;;9.45;5.55;;;12.40;99.90;;;;;;5018462;28;20178;-66
2023/03/21 00:08:25;;;;;;;9.93;5.72;;;12.20;99.90;;;;;;5020284;28;20556;-67
2023/03/21 00:10:59;;;;;;;12.45;5.78;;;12.20;99.90;;;;;;5007508;28;20263;-66
2023/03/21 00:13:31;;;;;;;9.70;5.40;;;12.20;99.90;;;;;;5029074;28;20189;-66
2023/03/21 00:16:09;;;;;;;7.70;5.13;;;12.10;99.90;;;;;;5010150;28;20285;-66
2023/03/21 00:18:41;;;;;;;9.52;5.45;;;12.10;99.90;;;;;;5027222;28;20245;-66
2023/03/21 00:21:08;;;;;;;10.52;5.38;;;12.20;99.90;;;;;;5027271;28;20723;-66
2023/03/21 00:23:35;;;;;;;10.40;5.63;;;12.20;99.90;;;;;;5013393;28;20171;-66
2023/03/21 00:26:01;;;;;;;15.60;5.75;;;12.30;99.90;;;;;;5009092;28;20299;-66
2023/03/21 00:28:27;;;;;;;8.77;4.65;;;12.40;99.90;;;;;;5028470;28;20265;-66
2023/03/21 00:30:57;;;;;;;5.82;4.07;;;12.40;99.90;;;;;;5022110;28;20184;-66
2023/03/21 00:33:23;;;;;;;15.65;5.70;;;12.30;99.90;;;;;;5005214;28;20265;-66
2023/03/21 00:35:51;;;;;;;17.65;7.75;;;12.30;99.90;;;;;;5014403;28;20658;-66
2023/03/21 00:38:17;;;;;;;7.43;4.57;;;12.20;99.90;;;;;;5011736;28;20200;-66
2023/03/21 00:40:43;;;;;;;8.50;5.53;;;12.30;99.90;;;;;;5015996;28;20190;-66
2023/03/21 00:43:10;;;;;;;8.32;5.28;;;12.30;99.90;;;;;;5015645;28;20180;-66
2023/03/21 00:45:36;;;;;;;8.07;4.80;;;12.30;99.90;;;;;;5031915;28;20186;-66
2023/03/21 00:48:03;;;;;;;9.82;5.63;;;12.20;99.90;;;;;;5016084;28;20186;-66
2023/03/21 00:50:31;;;;;;;5.55;3.90;;;12.30;99.90;;;;;;5022339;28;20220;-66
2023/03/21 00:52:57;;;;;;;10.90;5.50;;;12.40;99.90;;;;;;5029094;28;20262;-66
2023/03/21 00:55:23;;;;;;;7.47;4.35;;;12.40;99.90;;;;;;5008282;28;20602;-67
2023/03/21 00:57:49;;;;;;;9.43;5.97;;;12.40;99.90;;;;;;5024549;28;20221;-67
2023/03/21 01:00:16;;;;;;;10.02;5.50;;;12.40;99.90;;;;;;5008259;28;20211;-66
2023/03/21 01:02:55;;;;;;;8.25;5.82;;;12.20;99.90;;;;;;5028940;28;20198;-66
2023/03/21 01:08:15;;;;;;;8.63;4.82;;;12.20;99.90;;;;;;5011999;28;20186;-66
2023/03/21 01:10:43;;;;;;;10.52;5.18;;;12.40;99.90;;;;;;5027416;28;20211;-66
2023/03/21 01:13:09;;;;;;;9.93;5.40;;;12.60;99.90;;;;;;5015236;28;20175;-66
2023/03/21 01:15:41;;;;;;;8.23;4.60;;;12.60;99.90;;;;;;5022794;28;20261;-66
2023/03/21 01:18:06;;;;;;;6.30;4.57;;;12.40;99.90;;;;;;5022765;28;20186;-66
2023/03/21 01:20:32;;;;;;;6.15;4.30;;;12.50;99.90;;;;;;5001796;28;20200;-66
2023/03/21 01:22:58;;;;;;;7.03;4.50;;;12.60;99.90;;;;;;5017414;28;20182;-66
2023/03/21 01:25:24;;;;;;;11.88;5.07;;;12.40;99.90;;;;;;5011475;28;20285;-66
2023/03/21 01:27:50;;;;;;;7.15;4.70;;;12.30;99.90;;;;;;5022477;28;20658;-66
2023/03/21 01:30:16;;;;;;;14.18;5.32;;;12.40;99.90;;;;;;5023219;28;20187;-66
2023/03/21 01:32:41;;;;;;;9.60;4.82;;;12.30;99.90;;;;;;5019283;28;20683;-66
2023/03/21 01:35:07;;;;;;;8.10;4.70;;;12.40;99.90;;;;;;5016352;28;20275;-66
2023/03/21 01:37:33;;;;;;;8.68;5.38;;;12.20;99.90;;;;;;5024925;28;20179;-66
2023/03/21 01:39:59;;;;;;;13.10;4.40;;;12.40;99.90;;;;;;5023896;28;20210;-66
2023/03/21 01:42:24;;;;;;;10.52;4.85;;;12.40;99.90;;;;;;5004420;28;20659;-66
2023/03/21 01:44:57;;;;;;;5.68;4.32;;;12.40;99.90;;;;;;5004750;28;20554;-66
2023/03/21 01:47:24;;;;;;;13.57;4.95;;;12.40;99.90;;;;;;5012346;28;20640;-66
2023/03/21 01:49:54;;;;;;;6.68;3.95;;;12.40;99.90;;;;;;5026168;28;20178;-66
2023/03/21 01:52:31;;;;;;;9.60;5.57;;;12.40;99.90;;;;;;5012825;28;20178;-66
2023/03/21 01:54:58;;;;;;;9.23;4.80;;;12.40;99.90;;;;;;5028450;28;20175;-66
2023/03/21 01:57:31;;;;;;;7.82;3.83;;;12.50;99.90;;;;;;5021148;28;20179;-66
2023/03/21 02:00:06;;;;;;;10.43;5.22;;;12.30;99.90;;;;;;5031253;28;20293;-66
2023/03/21 02:02:36;;;;;;;12.77;5.85;;;12.40;99.90;;;;;;5016262;28;20265;-66
2023/03/21 02:05:02;;;;;;;6.88;5.00;;;12.40;99.90;;;;;;5025314;28;20183;-66
2023/03/21 02:07:33;;;;;;;10.18;5.63;;;12.50;99.90;;;;;;5006839;28;20183;-66
2023/03/21 02:10:00;;;;;;;6.32;4.53;;;12.50;99.90;;;;;;5021560;28;20182;-66
2023/03/21 02:12:26;;;;;;;9.82;4.82;;;12.50;99.90;;;;;;5011880;28;20247;-66
2023/03/21 02:14:53;;;;;;;9.25;5.22;;;12.50;99.90;;;;;;5027419;28;20305;-66
2023/03/21 02:17:50;;;;;;;10.05;4.53;;;12.50;99.90;;;;;;5017096;28;20582;-66
2023/03/21 02:20:35;;;;;;;9.38;5.43;;;12.30;99.90;;;;;;5002027;28;20199;-66
2023/03/21 02:23:22;;;;;;;9.10;4.90;;;12.40;99.90;;;;;;5016267;28;20179;-66
2023/03/21 02:25:59;;;;;;;7.00;4.38;;;12.50;99.90;;;;;;5012440;28;20544;-66
2023/03/21 02:28:44;;;;;;;10.60;5.63;;;12.40;99.90;;;;;;5003008;28;20485;-66
2023/03/21 02:32:00;;;;;;;8.43;4.38;;;12.40;99.90;;;;;;5006345;28;20226;-66
2023/03/21 02:35:05;;;;;;;11.35;4.40;;;12.40;99.90;;;;;;5015418;28;20221;-66
2023/03/21 02:37:41;;;;;;;15.30;5.13;;;12.40;99.90;;;;;;4979092;28;20225;-66
2023/03/21 02:40:29;;;;;;;11.50;4.80;;;12.40;99.90;;;;;;5004927;28;20279;-66
2023/03/21 02:42:58;;;;;;;9.55;4.57;;;12.50;99.90;;;;;;5019472;28;20182;-66
2023/03/21 02:45:56;;;;;;;7.28;4.88;;;12.50;99.90;;;;;;5013683;28;20223;-66
2023/03/21 02:48:29;;;;;;;12.27;5.32;;;12.20;99.90;;;;;;5024191;28;20667;-66
2023/03/21 02:50:59;;;;;;;10.18;6.18;;;12.20;99.90;;;;;;5005799;28;20171;-66
2023/03/21 02:53:30;;;;;;;8.13;4.47;;;12.30;99.90;;;;;;5023660;28;20174;-67
2023/03/21 02:55:57;;;;;;;8.35;5.45;;;12.40;99.90;;;;;;5015716;28;20182;-66
2023/03/21 02:58:26;;;;;;;6.53;3.95;;;12.50;99.90;;;;;;5021751;28;20675;-66
2023/03/21 03:00:55;;;;;;;9.48;4.07;;;12.30;99.90;;;;;;5006253;28;20187;-66
2023/03/21 03:03:22;;;;;;;7.05;4.05;;;12.50;99.90;;;;;;5002623;28;20176;-66
2023/03/21 03:05:54;;;;;;;5.82;4.07;;;12.50;99.90;;;;;;5011835;28;20190;-66
2023/03/21 03:08:35;;;;;;;8.18;4.75;;;12.50;99.90;;;;;;5006865;28;20203;-66
2023/03/21 03:11:08;;;;;;;6.80;3.50;;;12.70;99.90;;;;;;5005468;28;20184;-66
2023/03/21 03:13:45;;;;;;;9.20;4.63;;;12.60;99.90;;;;;;5008965;28;20203;-66
2023/03/21 03:16:26;;;;;;;10.23;4.65;;;12.60;99.90;;;;;;5007626;28;20232;-65
2023/03/21 03:18:58;;;;;;;6.18;4.35;;;12.50;99.90;;;;;;5008404;28;20218;-66
2023/03/21 03:21:41;;;;;;;5.70;3.92;;;12.40;99.90;;;;;;5010804;28;20184;-66
2023/03/21 03:24:09;;;;;;;10.77;4.55;;;12.30;99.90;;;;;;4997507;28;20186;-66
2023/03/21 03:26:50;;;;;;;9.07;3.50;;;12.30;99.90;;;;;;5016976;28;20285;-66
2023/03/21 03:29:17;;;;;;;7.82;4.00;;;12.30;99.90;;;;;;5005252;28;20609;-66
2023/03/21 03:31:50;;;;;;;7.53;3.97;;;12.30;99.90;;;;;;4997051;28;20211;-66
2023/03/21 03:34:20;;;;;;;7.00;4.20;;;12.30;99.90;;;;;;5004446;28;20199;-66
2023/03/21 03:36:56;;;;;;;5.22;3.15;;;12.40;99.90;;;;;;5003895;28;20636;-66
2023/03/21 03:39:28;;;;;;;12.45;5.40;;;12.40;99.90;;;;;;4998950;28;20225;-66
2023/03/21 03:41:58;;;;;;;4.32;3.42;;;12.30;99.90;;;;;;5004102;28;20184;-66
2023/03/21 03:44:24;;;;;;;8.73;3.83;;;12.50;99.90;;;;;;5002601;28;20175;-66
2023/03/21 03:47:16;;;;;;;4.32;3.17;;;12.40;99.90;;;;;;5006288;28;20176;-66
2023/03/21 03:49:56;;;;;;;7.32;4.00;;;12.50;99.90;;;;;;4999028;28;20274;-65
2023/03/21 03:52:35;;;;;;;5.90;3.67;;;12.60;99.90;;;;;;5000479;28;20195;-66
2023/03/21 03:55:02;;;;;;;8.75;3.72;;;12.50;99.90;;;;;;5012850;28;20213;-65
2023/03/21 03:57:29;;;;;;;8.25;3.83;;;12.60;99.90;;;;;;5011679;28;20184;-65
2023/03/21 03:59:54;;;;;;;8.10;4.57;;;12.70;99.90;;;;;;5004307;28;20211;-65
2023/03/21 04:02:20;;;;;;;3.50;3.15;;;12.70;99.90;;;;;;4997042;28;20274;-66
2023/03/21 04:04:51;;;;;;;4.47;2.85;;;12.80;99.90;;;;;;5011756;28;20276;-66
2023/03/21 04:07:18;;;;;;;4.68;3.42;;;12.90;99.90;;;;;;5014746;28;20182;-66
2023/03/21 04:09:44;;;;;;;8.10;4.03;;;12.80;99.90;;;;;;5001934;28;20198;-66
2023/03/21 04:12:11;;;;;;;6.28;4.85;;;12.80;99.90;;;;;;5009902;28;20327;-66
2023/03/21 04:14:37;;;;;;;7.88;4.60;;;12.80;99.90;;;;;;4999842;28;20238;-66
2023/03/21 04:17:03;;;;;;;4.68;3.15;;;12.70;99.90;;;;;;4997269;28;20310;-66
2023/03/21 04:19:28;;;;;;;7.07;3.72;;;12.80;99.90;;;;;;4997924;28;20208;-66
2023/03/21 04:21:54;;;;;;;4.65;3.33;;;12.80;99.90;;;;;;5004450;28;20196;-66
2023/03/21 04:24:20;;;;;;;9.45;4.28;;;12.70;99.90;;;;;;5027245;28;20266;-66
2023/03/21 04:26:45;;;;;;;7.18;3.78;;;12.70;99.90;;;;;;5015797;28;20195;-66
2023/03/21 04:29:11;;;;;;;8.65;4.28;;;12.80;99.90;;;;;;5042045;28;20179;-66
2023/03/21 04:31:40;;;;;;;5.82;3.85;;;12.80;99.90;;;;;;5029574;28;20231;-66
2023/03/21 04:34:08;;;;;;;6.78;4.25;;;12.80;99.90;;;;;;5011959;28;20221;-65
2023/03/21 04:36:42;;;;;;;5.75;4.03;;;12.80;99.90;;;;;;5026615;28;20183;-65
2023/03/21 04:39:11;;;;;;;18.38;5.05;;;12.80;99.90;;;;;;5027748;28;20213;-65
2023/03/21 04:41:42;;;;;;;10.20;4.78;;;12.80;99.90;;;;;;5007363;28;20203;-65
2023/03/21 04:44:08;;;;;;;5.93;5.07;;;12.80;99.90;;;;;;5021967;28;20262;-65
2023/03/21 04:46:35;;;;;;;14.13;5.63;;;12.80;99.90;;;;;;5028872;28;20694;-65
2023/03/21 04:49:01;;;;;;;5.40;4.05;;;12.70;99.90;;;;;;5049738;28;20202;-65
2023/03/21 04:51:27;;;;;;;10.23;4.63;;;12.80;99.90;;;;;;5044836;28;20190;-65
2023/03/21 04:53:56;;;;;;;7.50;4.45;;;12.80;99.90;;;;;;4997101;28;20188;-65
2023/03/21 04:56:29;;;;;;;13.45;5.57;;;12.80;99.90;;;;;;5005154;28;20236;-65
2023/03/21 04:58:55;;;;;;;12.98;5.28;;;12.80;99.90;;;;;;4996662;28;20303;-65
2023/03/21 05:01:21;;;;;;;8.43;5.07;;;12.70;99.90;;;;;;5029246;28;20237;-66
2023/03/21 05:03:46;;;;;;;6.50;4.95;;;12.60;99.90;;;;;;4996136;28;20180;-66
2023/03/21 05:06:12;;;;;;;10.52;5.50;;;12.70;99.90;;;;;;5011575;28;20659;-66
2023/03/21 05:08:38;;;;;;;13.18;5.72;;;12.80;99.90;;;;;;5018391;28;20270;-66
2023/03/21 05:11:04;;;;;;;9.07;6.03;;;12.60;99.90;;;;;;5000389;28;20188;-66
2023/03/21 05:13:30;;;;;;;10.32;5.68;;;12.70;99.90;;;;;;5000768;28;20667;-66
2023/03/21 05:15:55;;;;;;;17.75;7.03;;;12.70;99.90;;;;;;5009684;28;20227;-66
2023/03/21 05:18:24;;;;;;;11.77;5.70;;;12.70;99.90;;;;;;5013231;28;20199;-66
2023/03/21 05:20:54;;;;;;;9.57;6.32;;;12.60;99.90;;;;;;5027474;28;20268;-66
2023/03/21 05:23:22;;;;;;;11.80;7.78;;;12.70;99.90;;;;;;5040532;28;20543;-66
2023/03/21 05:25:48;;;;;;;16.55;6.45;;;12.70;99.90;;;;;;5026485;28;20652;-66
2023/03/21 05:28:22;;;;;;;14.73;6.45;;;12.50;99.90;;;;;;5001905;28;20258;-66
2023/03/21 05:30:48;;;;;;;10.18;6.00;;;12.40;99.90;;;;;;5007166;28;20176;-66
2023/03/21 05:33:14;;;;;;;11.68;7.85;;;12.60;99.90;;;;;;5001669;28;20183;-66
2023/03/21 05:35:39;;;;;;;9.10;6.72;;;12.70;99.90;;;;;;5010915;28;20628;-66
2023/03/21 05:38:05;;;;;;;14.63;6.75;;;12.70;99.90;;;;;;5012660;28;20194;-66
2023/03/21 05:40:31;;;;;;;10.60;6.68;;;12.50;99.90;;;;;;5004217;28;20254;-66
2023/03/21 05:42:56;;;;;;;12.68;5.65;;;12.70;99.90;;;;;;5005082;28;20198;-66
2023/03/21 05:45:22;;;;;;;10.95;5.72;;;12.60;99.90;;;;;;5006806;28;20227;-66
2023/03/21 05:47:48;;;;;;;11.45;5.93;;;12.60;99.90;;;;;;5010094;28;20494;-66
2023/03/21 05:50:14;;;;;;;9.07;5.95;;;12.80;99.90;;;;;;4999511;28;20192;-66
2023/03/21 05:52:39;;;;;;;11.70;6.40;;;12.70;99.90;;;;;;5012081;28;20554;-66
2023/03/21 05:55:06;;;;;;;7.93;5.18;;;12.70;99.90;;;;;;4995010;28;20191;-66
2023/03/21 05:57:33;;;;;;;12.27;6.15;;;12.60;99.90;;;;;;5001513;28;20179;-66
2023/03/21 06:00:00;;;;;;;12.68;6.55;;;12.70;99.90;;;;;;5004652;28;20203;-66
2023/03/21 06:02:26;;;;;;;8.75;6.03;;;12.70;99.90;;;;;;5008880;28;20211;-66
2023/03/21 06:04:51;;;;;;;10.52;6.40;;;12.60;99.90;;;;;;4994128;28;20602;-65
2023/03/21 06:07:17;;;;;;;10.48;5.70;;;12.70;99.90;;;;;;5006583;28;20238;-65
2023/03/21 06:09:43;;;;;;;8.70;5.97;;;12.50;99.90;;;;;;5023405;28;20278;-65
2023/03/21 06:12:09;;;;;;;13.65;6.80;;;12.40;99.90;;;;;;5011876;28;20269;-65
2023/03/21 06:14:35;;;;;;;10.90;6.05;;;12.30;99.90;;;;;;5007024;28;20628;-65
2023/03/21 06:17:01;;;;;;;9.02;6.18;;;12.20;99.90;;;;;;4998674;28;20234;-65
2023/03/21 06:19:26;;;;;;;11.80;6.60;;;12.10;99.90;;;;;;4996500;28;20208;-65
2023/03/21 06:21:52;;;;;;;13.18;6.68;;;12.10;99.90;;;;;;5010922;28;20195;-65
2023/03/21 06:24:18;;;;;;;12.73;6.82;;;12.20;99.90;;;;;;5010929;28;20271;-65
2023/03/21 06:26:44;;;;;;;9.93;6.15;;;12.20;99.90;;;;;;5011263;28;20699;-66
2023/03/21 06:29:10;;;;;;;11.70;6.43;;;12.10;99.90;;;;;;5004655;28;20245;-65
2023/03/21 06:31:36;;;;;;;18.40;7.15;;;12.00;99.90;;;;;;5010780;28;20183;-66
2023/03/21 06:34:01;;;;;;;12.52;7.30;;;12.00;99.90;;;;;;5001807;28;20194;-66
2023/03/21 06:36:27;;;;;;;17.52;6.55;;;11.90;99.90;;;;;;5009153;28;20195;-65
2023/03/21 06:38:53;;;;;;;15.02;7.40;;;11.80;99.90;;;;;;5010648;28;20246;-66
2023/03/21 06:41:18;;;;;;;13.13;6.97;;;11.80;99.90;;;;;;5009831;28;20613;-65
2023/03/21 06:43:45;;;;;;;10.82;7.38;;;11.80;99.90;;;;;;4998374;28;20191;-65
2023/03/21 06:46:11;;;;;;;16.95;6.95;;;11.80;99.90;;;;;;5002373;28;20217;-65
2023/03/21 06:48:38;;;;;;;18.27;8.03;;;11.80;99.90;;;;;;5007590;28;20187;-65
2023/03/21 06:51:04;;;;;;;18.73;8.05;;;11.90;99.90;;;;;;5007619;28;20226;-65
2023/03/21 06:53:31;;;;;;;12.00;6.77;;;11.90;99.90;;;;;;5005595;28;20183;-65
2023/03/21 06:55:57;;;;;;;17.43;7.20;;;11.80;99.90;;;;;;5007013;28;20183;-65
2023/03/21 06:58:23;;;;;;;12.27;7.83;;;11.80;99.90;;;;;;5003593;28;20198;-65
2023/03/21 07:00:49;;;;;;;12.40;6.17;;;11.80;99.90;;;;;;5004646;28;20192;-65
2023/03/21 07:03:15;;;;;;;11.63;6.80;;;11.80;99.90;;;;;;5007868;28;20194;-66
2023/03/21 07:05:42;;;;;;;11.48;6.20;;;11.80;99.90;;;;;;5002555;28;20190;-66
2023/03/21 07:08:11;;;;;;;12.10;6.93;;;11.80;99.90;;;;;;5010234;28;20179;-66
2023/03/21 07:10:42;;;;;;;9.95;6.10;;;11.80;99.90;;;;;;5010684;28;20191;-66
2023/03/21 07:13:08;;;;;;;10.65;6.00;;;11.80;99.90;;;;;;5010077;28;20178;-66
2023/03/21 07:15:36;;;;;;;13.40;6.15;;;11.80;99.90;;;;;;5009807;28;20171;-65
2023/03/21 07:18:03;;;;;;;9.40;5.15;;;11.90;99.90;;;;;;5004752;28;20681;-66
2023/03/21 07:20:29;;;;;;;8.65;6.57;;;12.00;99.90;;;;;;5001247;28;20211;-66
2023/03/21 07:22:55;;;;;;;11.73;6.45;;;12.10;99.90;;;;;;5006814;28;20196;-65
2023/03/21 07:25:21;;;;;;;7.20;6.13;;;12.00;99.90;;;;;;5030598;28;20198;-66
2023/03/21 07:27:47;;;;;;;8.27;5.28;;;12.10;99.90;;;;;;5010794;28;20191;-65
2023/03/21 07:30:13;;;;;;;10.30;6.32;;;12.20;99.90;;;;;;5011055;28;20645;-66
2023/03/21 07:32:39;;;;;;;6.00;4.95;;;12.10;99.90;;;;;;5007935;28;20183;-64
2023/03/21 07:35:11;;;;;;;9.80;5.75;;;12.10;99.90;;;;;;5008022;28;20212;-65
2023/03/21 07:37:37;;;;;;;7.32;3.75;;;12.30;99.90;;;;;;5014063;28;20206;-65
2023/03/21 07:40:08;;;;;;;7.30;4.85;;;12.40;99.90;;;;;;5014096;28;20203;-65
2023/03/21 07:42:34;;;;;;;9.27;5.13;;;12.50;99.90;;;;;;5006331;28;20192;-65
2023/03/21 07:45:00;;;;;;;8.15;4.07;;;12.60;99.90;;;;;;5004971;28;20187;-66
2023/03/21 07:47:25;;;;;;;11.60;5.55;;;12.70;99.90;;;;;;5010688;28;20180;-66
2023/03/21 07:49:51;;;;;;;8.18;4.88;;;12.90;99.90;;;;;;5007142;28;20191;-66
2023/03/21 07:52:17;;;;;;;7.70;4.82;;;13.10;99.90;;;;;;5009601;28;20184;-66
2023/03/21 07:54:42;;;;;;;8.40;5.10;;;13.20;99.90;;;;;;5006718;28;20214;-66
2023/03/21 07:57:08;;;;;;;6.18;4.60;;;13.40;99.90;;;;;;5007795;28;20183;-66
2023/03/21 07:59:34;;;;;;;7.05;4.70;;;13.40;99.90;;;;;;4994590;28;20211;-66
2023/03/21 08:01:59;;;;;;;7.72;4.22;;;13.30;99.90;;;;;;5008907;28;20183;-66
2023/03/21 08:04:25;;;;;;;7.30;4.03;;;13.20;99.90;;;;;;5012970;28;20640;-66
2023/03/21 08:06:51;;;;;;;6.68;4.80;;;13.00;99.90;;;;;;5009283;28;20569;-67
2023/03/21 08:09:17;;;;;;;10.65;3.97;;;12.90;99.90;;;;;;5022132;28;20524;-68
2023/03/21 08:11:43;;;;;;;8.88;3.95;;;12.90;99.90;;;;;;5003768;28;20202;-66
2023/03/21 08:14:08;;;;;;;5.80;3.70;;;13.00;99.90;;;;;;5005240;28;20184;-66
2023/03/21 08:16:34;;;;;;;3.95;3.42;;;13.00;99.90;;;;;;5002592;28;20239;-67
2023/03/21 08:19:00;;;;;;;4.55;3.22;;;12.90;99.90;;;;;;5002873;28;20195;-68
2023/03/21 08:21:26;;;;;;;4.28;3.88;;;12.70;99.90;;;;;;5011770;28;20531;-67
2023/03/21 08:23:52;;;;;;;12.55;4.35;;;12.80;99.90;;;;;;5017291;28;20214;-67
2023/03/21 08:26:18;;;;;;;12.63;4.07;;;12.80;99.90;;;;;;5011123;28;20526;-68
2023/03/21 08:28:45;;;;;;;9.25;4.03;;;12.90;99.90;;;;;;5009103;28;20191;-67
2023/03/21 08:31:12;;;;;;;6.95;3.50;;;12.90;99.90;;;;;;5011804;28;20187;-68
2023/03/21 08:33:38;;;;;;;6.10;3.90;;;12.80;99.90;;;;;;5019393;28;20172;-66
2023/03/21 08:36:05;;;;;;;5.32;4.90;;;12.80;99.90;;;;;;5017349;28;20193;-66
2023/03/21 08:38:32;;;;;;;9.57;4.45;;;12.90;99.90;;;;;;4999587;28;20176;-67
2023/03/21 08:41:01;;;;;;;12.40;3.92;;;13.00;99.90;;;;;;4996732;28;20202;-66
2023/03/21 08:43:27;;;;;;;9.07;4.53;;;13.20;99.90;;;;;;5004213;28;20188;-66
2023/03/21 08:45:54;;;;;;;15.65;5.20;;;13.20;99.90;;;;;;5011984;28;20187;-66
2023/03/21 08:48:20;;;;;;;6.18;4.18;;;13.20;99.90;;;;;;5011653;28;20191;-67
2023/03/21 08:50:45;;;;;;;8.85;3.97;;;13.20;99.90;;;;;;5014464;28;20266;-66
2023/03/21 08:53:12;;;;;;;6.05;3.60;;;13.10;99.90;;;;;;5020812;28;20179;-66
2023/03/21 08:55:37;;;;;;;10.25;4.15;;;13.10;99.90;;;;;;5007637;28;20186;-64
2023/03/21 08:58:04;;;;;;;10.90;4.68;;;13.10;99.90;;;;;;5013484;28;20183;-66
2023/03/21 09:00:29;;;;;;;6.50;4.80;;;13.20;99.90;;;;;;5010753;28;20195;-66
2023/03/21 09:02:57;;;;;;;8.13;4.00;;;13.30;99.90;;;;;;5018415;28;20713;-66
2023/03/21 09:05:25;;;;;;;6.47;4.97;;;13.40;99.90;;;;;;5014111;28;20209;-66
2023/03/21 09:07:51;;;;;;;7.82;4.00;;;13.60;99.90;;;;;;5012589;28;20182;-66
2023/03/21 09:10:20;;;;;;;8.95;3.95;;;13.90;99.90;;;;;;5011747;28;20306;-65
2023/03/21 09:12:46;;;;;;;4.43;3.70;;;14.10;99.90;;;;;;5007772;28;20179;-67
2023/03/21 09:15:13;;;;;;;7.85;4.00;;;14.00;99.90;;;;;;4997668;28;20175;-66
2023/03/21 09:17:42;;;;;;;6.97;4.10;;;14.10;99.90;;;;;;5011430;28;20615;-66
2023/03/21 09:20:17;;;;;;;7.90;4.53;;;14.10;99.90;;;;;;5014377;28;20207;-66
2023/03/21 09:22:44;;;;;;;6.72;4.22;;;14.20;99.90;;;;;;5013754;28;20220;-66
2023/03/21 09:25:10;;;;;;;4.97;4.10;;;14.30;99.90;;;;;;4998377;28;20178;-68
2023/03/21 09:27:36;;;;;;;8.35;4.00;;;14.40;99.90;;;;;;5005663;28;20179;-67
2023/03/21 09:30:04;;;;;;;5.15;4.10;;;14.50;99.90;;;;;;5005672;28;20235;-66
2023/03/21 09:32:30;;;;;;;7.63;3.67;;;14.40;99.90;;;;;;5008325;28;20184;-65
2023/03/21 09:34:56;;;;;;;10.13;3.80;;;14.20;99.90;;;;;;5007703;28;20716;-65
2023/03/21 09:37:22;;;;;;;5.97;3.75;;;14.00;99.90;;;;;;5007949;28;20243;-67
2023/03/21 09:39:50;;;;;;;4.18;3.78;;;13.90;99.90;;;;;;5022213;28;20207;-64
2023/03/21 09:42:29;;;;;;;8.35;4.25;;;13.90;99.90;;;;;;5011644;28;20206;-67
2023/03/21 09:45:11;;;;;;;6.55;4.22;;;14.00;99.90;;;;;;5015282;28;20187;-66
2023/03/21 09:47:52;;;;;;;7.07;3.90;;;14.10;99.90;;;;;;5007816;28;20186;-64
2023/03/21 09:50:30;;;;;;;5.97;3.72;;;14.10;99.90;;;;;;5006250;28;20178;-67
2023/03/21 09:53:06;;;;;;;7.63;4.30;;;14.20;99.90;;;;;;5017413;28;20201;-67
2023/03/21 09:55:38;;;;;;;4.47;3.25;;;14.30;99.90;;;;;;5010230;28;20187;-66
2023/03/21 09:58:30;;;;;;;7.43;4.00;;;14.30;99.90;;;;;;5009604;28;20183;-67
2023/03/21 10:01:06;;;;;;;7.00;3.97;;;14.40;99.90;;;;;;5011849;28;20198;-65
2023/03/21 10:03:36;;;;;;;6.85;3.75;;;14.70;99.90;;;;;;5008423;28;20278;-66
2023/03/21 10:06:11;;;;;;;9.48;4.05;;;14.70;99.90;;;;;;4998886;28;20531;-67
2023/03/21 10:08:44;;;;;;;7.95;3.30;;;14.60;99.90;;;;;;5006299;28;20221;-67
2023/03/21 10:11:21;;;;;;;5.15;3.33;;;14.70;99.90;;;;;;5008144;28;20704;-69
2023/03/21 10:13:58;;;;;;;4.75;3.70;;;14.80;99.90;;;;;;5008531;28;20272;-64
2023/03/21 10:16:31;;;;;;;5.50;4.03;;;15.00;99.90;;;;;;5009219;28;20276;-66
2023/03/21 10:18:59;;;;;;;7.30;3.75;;;15.00;99.90;;;;;;5009064;28;20244;-66
2023/03/21 10:21:27;;;;;;;6.63;3.63;;;14.70;99.90;;;;;;5016006;28;20203;-68
2023/03/21 10:23:55;;;;;;;5.97;3.40;;;14.60;99.90;;;;;;5005474;28;20697;-67
2023/03/21 10:26:26;;;;;;;6.38;3.20;;;14.80;99.90;;;;;;5004589;28;20184;-68
2023/03/21 10:28:54;;;;;;;6.90;3.17;;;14.90;99.90;;;;;;5004732;28;20750;-66
2023/03/21 10:31:24;;;;;;;7.53;3.90;;;15.00;99.90;;;;;;5005631;28;20198;-68
2023/03/21 10:33:53;;;;;;;7.05;3.67;;;15.10;99.90;;;;;;5010748;28;20187;-66
2023/03/21 10:36:24;;;;;;;4.40;3.42;;;15.40;99.90;;;;;;5017812;28;20663;-67
2023/03/21 10:38:55;;;;;;;7.38;3.65;;;15.70;99.90;;;;;;5027527;28;20245;-66
2023/03/21 10:41:20;;;;;;;7.30;3.00;;;15.60;99.90;;;;;;5025797;28;20191;-66
2023/03/21 10:44:02;;;;;;;6.65;3.25;;;15.80;99.90;;;;;;5026658;28;20190;-68
2023/03/21 10:46:28;;;;;;;5.10;3.47;;;15.80;99.90;;;;;;5016765;28;20654;-68
2023/03/21 10:48:54;;;;;;;5.80;2.97;;;16.00;99.90;;;;;;5011785;28;20200;-69
2023/03/21 10:51:31;;;;;;;11.30;3.70;;;16.10;99.90;;;;;;5019137;28;20192;-67
2023/03/21 10:54:00;;;;;;;4.90;3.47;;;16.30;99.90;;;;;;5037405;28;20183;-69
2023/03/21 10:56:33;;;;;;;5.72;3.63;;;16.20;99.90;;;;;;5008173;28;20186;-66
2023/03/21 10:59:00;;;;;;;6.18;4.15;;;16.00;99.90;;;;;;5007887;28;20216;-66
2023/03/21 11:01:49;;;;;;;5.38;4.03;;;16.00;99.90;;;;;;5009400;28;20273;-66
2023/03/21 11:04:21;;;;;;;8.05;3.63;;;15.90;99.90;;;;;;5016252;28;20183;-67
2023/03/21 11:06:56;;;;;;;5.57;3.65;;;15.80;99.90;;;;;;5009786;28;20633;-67
2023/03/21 11:09:24;;;;;;;6.10;3.65;;;15.80;99.90;;;;;;5010426;28;20649;-67
2023/03/21 11:12:05;;;;;;;5.40;3.92;;;15.90;99.90;;;;;;5015845;28;20192;-72
2023/03/21 11:14:33;;;;;;;4.60;4.10;;;16.00;99.90;;;;;;5006099;28;20187;-69
2023/03/21 11:16:58;;;;;;;5.22;4.60;;;16.00;99.90;;;;;;5008792;28;20714;-70
2023/03/21 11:19:34;;;;;;;5.25;3.53;;;16.10;99.90;;;;;;5011228;28;20215;-69
2023/03/21 11:22:07;;;;;;;7.28;4.05;;;16.20;99.90;;;;;;5015212;28;20270;-68
2023/03/21 11:24:34;;;;;;;7.07;4.20;;;16.50;99.90;;;;;;5014383;28;20188;-70
2023/03/21 11:27:05;;;;;;;7.32;4.20;;;16.30;99.90;;;;;;5015330;28;20707;-67
2023/03/21 11:29:37;;;;;;;6.63;4.05;;;16.20;99.90;;;;;;5012043;28;20274;-70
2023/03/21 11:32:27;;;;;;;4.75;3.47;;;16.30;99.90;;;;;;4998130;28;20569;-68
2023/03/21 11:35:19;;;;;;;3.65;3.15;;;16.40;99.90;;;;;;5005507;28;20275;-68
2023/03/21 11:37:50;;;;;;;6.03;3.67;;;16.20;99.90;;;;;;4996989;28;20176;-69
2023/03/21 11:40:27;;;;;;;5.50;3.65;;;16.30;99.90;;;;;;5001742;28;20203;-69
2023/03/21 11:42:53;;;;;;;3.78;3.30;;;16.10;99.90;;;;;;5013468;28;20207;-70
2023/03/21 11:45:22;;;;;;;12.95;4.80;;;16.00;99.90;;;;;;5010338;28;20195;-68
2023/03/21 11:47:49;;;;;;;8.15;3.65;;;15.90;99.90;;;;;;5008753;28;20717;-67
2023/03/21 11:50:16;;;;;;;4.50;3.33;;;15.70;99.90;;;;;;5011031;28;20274;-67
2023/03/21 11:52:58;;;;;;;4.28;3.88;;;15.50;99.90;;;;;;5008097;28;20187;-67
2023/03/21 11:55:45;;;;;;;4.60;4.10;;;15.60;99.90;;;;;;5010875;28;20713;-67
2023/03/21 11:58:25;;;;;;;5.20;3.55;;;15.70;99.90;;;;;;5006035;28;20698;-70
2023/03/21 12:01:09;;;;;;;6.10;3.67;;;15.90;99.90;;;;;;5004382;28;20648;-68
2023/03/21 12:03:44;;;;;;;4.72;3.10;;;16.10;99.90;;;;;;5010878;28;20322;-69
2023/03/21 12:06:35;;;;;;;4.35;3.78;;;16.10;99.90;;;;;;5014459;28;20532;-68
2023/03/21 12:09:14;;;;;;;3.95;3.65;;;16.40;99.90;;;;;;5010051;28;20184;-70
2023/03/21 12:11:55;;;;;;;5.22;3.67;;;16.60;99.90;;;;;;5004764;28;20198;-68
2023/03/21 12:14:38;;;;;;;6.88;4.13;;;16.90;99.90;;;;;;5012393;28;20576;-66
2023/03/21 12:17:37;;;;;;;7.80;3.78;;;17.20;99.90;;;;;;5013485;28;20338;-69
2023/03/21 12:20:36;;;;;;;7.82;3.60;;;17.30;99.90;;;;;;5002236;28;20381;-67
2023/03/21 12:23:40;;;;;;;4.30;3.90;;;17.20;99.90;;;;;;5011464;28;20176;-67
2023/03/21 12:26:26;;;;;;;5.47;3.53;;;17.20;99.90;;;;;;5010322;28;20242;-68
2023/03/21 12:29:13;;;;;;;4.22;3.30;;;17.40;99.90;;;;;;5010959;28;20620;-66
2023/03/21 12:32:15;;;;;;;7.72;3.70;;;17.40;99.90;;;;;;5017146;28;20258;-67
2023/03/21 12:34:55;;;;;;;7.93;4.60;;;17.20;99.90;;;;;;5007566;28;20253;-68
2023/03/21 12:37:32;;;;;;;7.45;4.50;;;17.30;99.90;;;;;;5013396;28;20190;-67
2023/03/21 12:40:20;;;;;;;8.40;5.15;;;17.20;99.90;;;;;;5010011;28;20545;-66
2023/03/21 12:43:11;;;;;;;5.55;3.75;;;17.00;99.90;;;;;;5000817;28;20192;-67
2023/03/21 12:45:41;;;;;;;7.40;4.72;;;16.80;99.90;;;;;;5001574;28;20633;-67
2023/03/21 12:48:25;;;;;;;4.28;3.95;;;16.60;99.90;;;;;;5006194;28;20190;-66
2023/03/21 12:50:54;;;;;;;4.88;3.80;;;16.60;99.90;;;;;;5010328;28;20187;-66
2023/03/21 12:53:34;;;;;;;4.13;3.72;;;16.50;99.90;;;;;;5022193;28;20176;-67
2023/03/21 12:56:03;;;;;;;5.18;3.83;;;16.60;99.90;;;;;;5002100;28;20506;-66
2023/03/21 12:58:34;;;;;;;10.50;4.10;;;16.70;99.90;;;;;;5005778;28;20204;-67
2023/03/21 13:01:04;;;;;;;6.43;3.38;;;16.80;99.90;;;;;;5002966;28;20176;-67
2023/03/21 13:03:32;;;;;;;3.75;3.22;;;16.90;99.90;;;;;;5008103;28;20194;-67